sensor_id;sensor_type;location;lat;lon;timestamp;P1;durP1;ratioP1;P2;durP2;ratioP2
31836;SDS011;18401;49.344;6.240;2024-02-28T00:00:24;65.40;;;26.27;;
31836;SDS011;18401;49.344;6.240;2024-02-28T00:02:50;58.95;;;24.08;;
31836;SDS011;18401;49.344;6.240;2024-02-28T00:05:16;66.78;;;26.75;;
31836;SDS011;18401;49.344;6.240;2024-02-28T00:07:41;63.97;;;25.75;;
31836;SDS011;18401;49.344;6.240;2024-02-28T00:10:09;61.45;;;25.65;;
31836;SDS011;18401;49.344;6.240;2024-02-28T00:12:34;65.50;;;25.95;;
31836;SDS011;18401;49.344;6.240;2024-02-28T00:15:00;75.47;;;29.73;;
31836;SDS011;18401;49.344;6.240;2024-02-28T00:17:26;80.65;;;29.08;;
31836;SDS011;18401;49.344;6.240;2024-02-28T00:19:51;74.18;;;29.25;;
31836;SDS011;18401;49.344;6.240;2024-02-28T00:22:17;89.68;;;31.55;;
31836;SDS011;18401;49.344;6.240;2024-02-28T00:24:43;75.68;;;28.13;;
31836;SDS011;18401;49.344;6.240;2024-02-28T00:27:08;81.65;;;29.85;;
31836;SDS011;18401;49.344;6.240;2024-02-28T00:29:34;65.13;;;26.88;;
31836;SDS011;18401;49.344;6.240;2024-02-28T00:31:59;67.70;;;27.73;;
31836;SDS011;18401;49.344;6.240;2024-02-28T00:34:25;67.28;;;27.67;;
31836;SDS011;18401;49.344;6.240;2024-02-28T00:36:51;73.80;;;28.45;;
31836;SDS011;18401;49.344;6.240;2024-02-28T00:39:16;64.30;;;26.17;;
31836;SDS011;18401;49.344;6.240;2024-02-28T00:41:42;64.97;;;26.17;;
31836;SDS011;18401;49.344;6.240;2024-02-28T00:44:08;68.07;;;26.20;;
31836;SDS011;18401;49.344;6.240;2024-02-28T00:46:34;63.28;;;26.80;;
31836;SDS011;18401;49.344;6.240;2024-02-28T00:48:59;70.88;;;26.30;;
31836;SDS011;18401;49.344;6.240;2024-02-28T00:51:25;63.42;;;26.17;;
31836;SDS011;18401;49.344;6.240;2024-02-28T00:53:51;62.67;;;25.60;;
31836;SDS011;18401;49.344;6.240;2024-02-28T00:56:16;61.80;;;24.38;;
31836;SDS011;18401;49.344;6.240;2024-02-28T00:58:43;67.53;;;26.48;;
31836;SDS011;18401;49.344;6.240;2024-02-28T01:01:09;63.35;;;24.65;;
31836;SDS011;18401;49.344;6.240;2024-02-28T01:03:35;59.97;;;24.73;;
31836;SDS011;18401;49.344;6.240;2024-02-28T01:06:01;52.88;;;22.38;;
31836;SDS011;18401;49.344;6.240;2024-02-28T01:08:28;54.25;;;22.45;;
31836;SDS011;18401;49.344;6.240;2024-02-28T01:10:54;62.58;;;25.17;;
31836;SDS011;18401;49.344;6.240;2024-02-28T01:13:20;68.00;;;27.08;;
31836;SDS011;18401;49.344;6.240;2024-02-28T01:15:46;67.82;;;25.13;;
31836;SDS011;18401;49.344;6.240;2024-02-28T01:18:11;63.58;;;24.98;;
31836;SDS011;18401;49.344;6.240;2024-02-28T01:20:37;63.13;;;24.65;;
31836;SDS011;18401;49.344;6.240;2024-02-28T01:23:03;56.95;;;24.45;;
31836;SDS011;18401;49.344;6.240;2024-02-28T01:25:28;56.05;;;22.05;;
31836;SDS011;18401;49.344;6.240;2024-02-28T01:27:55;51.75;;;20.98;;
31836;SDS011;18401;49.344;6.240;2024-02-28T01:30:23;55.63;;;23.75;;
31836;SDS011;18401;49.344;6.240;2024-02-28T01:32:49;62.83;;;25.58;;
31836;SDS011;18401;49.344;6.240;2024-02-28T01:35:14;69.97;;;25.85;;
31836;SDS011;18401;49.344;6.240;2024-02-28T01:37:40;65.18;;;26.58;;
31836;SDS011;18401;49.344;6.240;2024-02-28T01:40:06;61.97;;;24.80;;
31836;SDS011;18401;49.344;6.240;2024-02-28T01:42:32;68.55;;;26.48;;
31836;SDS011;18401;49.344;6.240;2024-02-28T01:44:57;62.55;;;24.58;;
31836;SDS011;18401;49.344;6.240;2024-02-28T01:47:23;59.65;;;24.00;;
31836;SDS011;18401;49.344;6.240;2024-02-28T01:49:49;56.97;;;24.13;;
31836;SDS011;18401;49.344;6.240;2024-02-28T01:52:16;68.05;;;26.40;;
31836;SDS011;18401;49.344;6.240;2024-02-28T01:54:42;61.20;;;25.15;;
31836;SDS011;18401;49.344;6.240;2024-02-28T01:57:09;77.03;;;26.95;;
31836;SDS011;18401;49.344;6.240;2024-02-28T01:59:35;82.95;;;31.15;;
31836;SDS011;18401;49.344;6.240;2024-02-28T02:02:02;71.65;;;30.05;;
31836;SDS011;18401;49.344;6.240;2024-02-28T02:04:28;76.38;;;29.85;;
31836;SDS011;18401;49.344;6.240;2024-02-28T02:06:54;80.63;;;30.58;;
31836;SDS011;18401;49.344;6.240;2024-02-28T02:09:23;85.72;;;31.67;;
31836;SDS011;18401;49.344;6.240;2024-02-28T02:11:50;80.90;;;32.90;;
31836;SDS011;18401;49.344;6.240;2024-02-28T02:14:16;83.68;;;30.77;;
31836;SDS011;18401;49.344;6.240;2024-02-28T02:16:41;80.30;;;31.15;;
31836;SDS011;18401;49.344;6.240;2024-02-28T02:19:08;86.20;;;32.45;;
31836;SDS011;18401;49.344;6.240;2024-02-28T02:21:37;89.30;;;33.72;;
31836;SDS011;18401;49.344;6.240;2024-02-28T02:24:13;84.78;;;33.03;;
31836;SDS011;18401;49.344;6.240;2024-02-28T02:26:39;85.07;;;32.53;;
31836;SDS011;18401;49.344;6.240;2024-02-28T02:29:05;78.22;;;29.70;;
31836;SDS011;18401;49.344;6.240;2024-02-28T02:31:30;82.55;;;32.47;;
31836;SDS011;18401;49.344;6.240;2024-02-28T02:33:56;79.70;;;30.85;;
31836;SDS011;18401;49.344;6.240;2024-02-28T02:36:22;75.88;;;29.67;;
31836;SDS011;18401;49.344;6.240;2024-02-28T02:38:47;79.95;;;31.55;;
31836;SDS011;18401;49.344;6.240;2024-02-28T02:41:13;75.35;;;29.85;;
31836;SDS011;18401;49.344;6.240;2024-02-28T02:43:39;75.15;;;30.20;;
31836;SDS011;18401;49.344;6.240;2024-02-28T02:46:04;83.82;;;30.27;;
31836;SDS011;18401;49.344;6.240;2024-02-28T02:48:30;85.25;;;31.58;;
31836;SDS011;18401;49.344;6.240;2024-02-28T02:50:55;80.47;;;29.88;;
31836;SDS011;18401;49.344;6.240;2024-02-28T02:53:21;87.22;;;31.35;;
31836;SDS011;18401;49.344;6.240;2024-02-28T02:55:47;81.97;;;30.85;;
31836;SDS011;18401;49.344;6.240;2024-02-28T02:58:13;79.88;;;30.55;;
31836;SDS011;18401;49.344;6.240;2024-02-28T03:00:38;75.70;;;30.02;;
31836;SDS011;18401;49.344;6.240;2024-02-28T03:03:04;75.88;;;30.50;;
31836;SDS011;18401;49.344;6.240;2024-02-28T03:05:30;81.45;;;29.67;;
31836;SDS011;18401;49.344;6.240;2024-02-28T03:07:56;83.25;;;30.38;;
31836;SDS011;18401;49.344;6.240;2024-02-28T03:10:22;70.72;;;29.08;;
31836;SDS011;18401;49.344;6.240;2024-02-28T03:12:47;75.28;;;28.38;;
31836;SDS011;18401;49.344;6.240;2024-02-28T03:15:13;82.60;;;30.00;;
31836;SDS011;18401;49.344;6.240;2024-02-28T03:17:38;75.80;;;28.52;;
31836;SDS011;18401;49.344;6.240;2024-02-28T03:20:04;74.32;;;29.15;;
31836;SDS011;18401;49.344;6.240;2024-02-28T03:22:32;79.10;;;30.10;;
31836;SDS011;18401;49.344;6.240;2024-02-28T03:24:58;76.43;;;29.52;;
31836;SDS011;18401;49.344;6.240;2024-02-28T03:27:24;76.10;;;29.73;;
31836;SDS011;18401;49.344;6.240;2024-02-28T03:29:49;78.90;;;29.23;;
31836;SDS011;18401;49.344;6.240;2024-02-28T03:32:15;83.88;;;31.48;;
31836;SDS011;18401;49.344;6.240;2024-02-28T03:34:40;76.07;;;30.08;;
31836;SDS011;18401;49.344;6.240;2024-02-28T03:37:06;71.43;;;27.77;;
31836;SDS011;18401;49.344;6.240;2024-02-28T03:39:32;73.80;;;28.92;;
31836;SDS011;18401;49.344;6.240;2024-02-28T03:41:57;85.25;;;29.08;;
31836;SDS011;18401;49.344;6.240;2024-02-28T03:44:23;77.55;;;28.23;;
31836;SDS011;18401;49.344;6.240;2024-02-28T03:46:50;83.05;;;31.08;;
31836;SDS011;18401;49.344;6.240;2024-02-28T03:49:16;76.63;;;29.20;;
31836;SDS011;18401;49.344;6.240;2024-02-28T03:51:42;77.30;;;28.48;;
31836;SDS011;18401;49.344;6.240;2024-02-28T03:54:08;73.85;;;29.23;;
31836;SDS011;18401;49.344;6.240;2024-02-28T03:56:34;77.55;;;30.00;;
31836;SDS011;18401;49.344;6.240;2024-02-28T03:59:00;74.55;;;28.60;;
31836;SDS011;18401;49.344;6.240;2024-02-28T04:01:26;78.80;;;28.02;;
31836;SDS011;18401;49.344;6.240;2024-02-28T04:03:52;66.47;;;26.38;;
31836;SDS011;18401;49.344;6.240;2024-02-28T04:06:17;72.72;;;27.45;;
31836;SDS011;18401;49.344;6.240;2024-02-28T04:08:43;73.80;;;27.40;;
31836;SDS011;18401;49.344;6.240;2024-02-28T04:11:09;67.55;;;26.40;;
31836;SDS011;18401;49.344;6.240;2024-02-28T04:13:34;68.43;;;26.23;;
31836;SDS011;18401;49.344;6.240;2024-02-28T04:16:01;74.65;;;26.20;;
31836;SDS011;18401;49.344;6.240;2024-02-28T04:18:28;74.38;;;28.15;;
31836;SDS011;18401;49.344;6.240;2024-02-28T04:20:54;78.20;;;28.85;;
31836;SDS011;18401;49.344;6.240;2024-02-28T04:23:20;71.70;;;25.52;;
31836;SDS011;18401;49.344;6.240;2024-02-28T04:25:46;73.35;;;26.27;;
31836;SDS011;18401;49.344;6.240;2024-02-28T04:28:11;78.22;;;29.73;;
31836;SDS011;18401;49.344;6.240;2024-02-28T04:30:37;79.97;;;28.80;;
31836;SDS011;18401;49.344;6.240;2024-02-28T04:33:03;81.63;;;28.48;;
31836;SDS011;18401;49.344;6.240;2024-02-28T04:35:28;74.03;;;26.75;;
31836;SDS011;18401;49.344;6.240;2024-02-28T04:37:54;74.70;;;26.85;;
31836;SDS011;18401;49.344;6.240;2024-02-28T04:40:20;84.60;;;29.60;;
31836;SDS011;18401;49.344;6.240;2024-02-28T04:42:45;74.00;;;26.90;;
31836;SDS011;18401;49.344;6.240;2024-02-28T04:45:11;70.93;;;26.55;;
31836;SDS011;18401;49.344;6.240;2024-02-28T04:47:37;74.90;;;26.13;;
31836;SDS011;18401;49.344;6.240;2024-02-28T04:50:03;74.10;;;26.00;;
31836;SDS011;18401;49.344;6.240;2024-02-28T04:52:32;72.05;;;26.73;;
31836;SDS011;18401;49.344;6.240;2024-02-28T04:54:58;82.03;;;27.90;;
31836;SDS011;18401;49.344;6.240;2024-02-28T04:57:24;79.80;;;28.70;;
31836;SDS011;18401;49.344;6.240;2024-02-28T04:59:49;85.47;;;29.65;;
31836;SDS011;18401;49.344;6.240;2024-02-28T05:02:15;80.82;;;28.95;;
31836;SDS011;18401;49.344;6.240;2024-02-28T05:04:41;81.60;;;29.40;;
31836;SDS011;18401;49.344;6.240;2024-02-28T05:07:07;76.68;;;27.95;;
31836;SDS011;18401;49.344;6.240;2024-02-28T05:09:33;80.15;;;29.02;;
31836;SDS011;18401;49.344;6.240;2024-02-28T05:11:59;83.45;;;29.95;;
31836;SDS011;18401;49.344;6.240;2024-02-28T05:14:25;73.43;;;26.77;;
31836;SDS011;18401;49.344;6.240;2024-02-28T05:16:50;80.25;;;28.70;;
31836;SDS011;18401;49.344;6.240;2024-02-28T05:19:16;85.63;;;29.63;;
31836;SDS011;18401;49.344;6.240;2024-02-28T05:21:43;85.50;;;28.08;;
31836;SDS011;18401;49.344;6.240;2024-02-28T05:24:09;88.85;;;29.38;;
31836;SDS011;18401;49.344;6.240;2024-02-28T05:26:35;85.80;;;30.70;;
31836;SDS011;18401;49.344;6.240;2024-02-28T05:29:02;80.32;;;28.73;;
31836;SDS011;18401;49.344;6.240;2024-02-28T05:31:28;81.07;;;27.38;;
31836;SDS011;18401;49.344;6.240;2024-02-28T05:33:56;87.97;;;30.42;;
31836;SDS011;18401;49.344;6.240;2024-02-28T05:36:22;90.18;;;30.08;;
31836;SDS011;18401;49.344;6.240;2024-02-28T05:38:48;92.38;;;32.28;;
31836;SDS011;18401;49.344;6.240;2024-02-28T05:41:18;85.35;;;29.58;;
31836;SDS011;18401;49.344;6.240;2024-02-28T05:43:44;81.03;;;28.30;;
31836;SDS011;18401;49.344;6.240;2024-02-28T05:46:10;87.28;;;30.00;;
31836;SDS011;18401;49.344;6.240;2024-02-28T05:48:36;75.15;;;26.48;;
31836;SDS011;18401;49.344;6.240;2024-02-28T05:51:02;86.47;;;26.85;;
31836;SDS011;18401;49.344;6.240;2024-02-28T05:53:28;86.97;;;29.17;;
31836;SDS011;18401;49.344;6.240;2024-02-28T05:55:57;81.05;;;27.25;;
31836;SDS011;18401;49.344;6.240;2024-02-28T05:58:23;85.72;;;29.45;;
31836;SDS011;18401;49.344;6.240;2024-02-28T06:00:50;74.60;;;27.92;;
31836;SDS011;18401;49.344;6.240;2024-02-28T06:03:16;90.57;;;29.02;;
31836;SDS011;18401;49.344;6.240;2024-02-28T06:05:42;79.03;;;27.40;;
31836;SDS011;18401;49.344;6.240;2024-02-28T06:08:08;85.15;;;29.13;;
31836;SDS011;18401;49.344;6.240;2024-02-28T06:10:33;90.03;;;29.25;;
31836;SDS011;18401;49.344;6.240;2024-02-28T06:12:59;93.43;;;28.08;;
31836;SDS011;18401;49.344;6.240;2024-02-28T06:15:25;91.93;;;29.88;;
31836;SDS011;18401;49.344;6.240;2024-02-28T06:17:51;81.90;;;27.67;;
31836;SDS011;18401;49.344;6.240;2024-02-28T06:20:16;88.22;;;29.27;;
31836;SDS011;18401;49.344;6.240;2024-02-28T06:22:42;84.38;;;27.52;;
31836;SDS011;18401;49.344;6.240;2024-02-28T06:25:08;99.07;;;31.90;;
31836;SDS011;18401;49.344;6.240;2024-02-28T06:27:43;103.10;;;30.23;;
31836;SDS011;18401;49.344;6.240;2024-02-28T06:30:09;97.35;;;30.73;;
31836;SDS011;18401;49.344;6.240;2024-02-28T06:32:34;87.95;;;27.27;;
31836;SDS011;18401;49.344;6.240;2024-02-28T06:35:00;90.60;;;28.88;;
31836;SDS011;18401;49.344;6.240;2024-02-28T06:37:26;97.72;;;31.05;;
31836;SDS011;18401;49.344;6.240;2024-02-28T06:39:53;113.25;;;36.25;;
31836;SDS011;18401;49.344;6.240;2024-02-28T06:42:18;97.30;;;29.35;;
31836;SDS011;18401;49.344;6.240;2024-02-28T06:44:44;88.60;;;28.52;;
31836;SDS011;18401;49.344;6.240;2024-02-28T06:47:09;97.35;;;29.02;;
31836;SDS011;18401;49.344;6.240;2024-02-28T06:49:35;93.03;;;29.75;;
31836;SDS011;18401;49.344;6.240;2024-02-28T06:52:00;85.43;;;27.85;;
31836;SDS011;18401;49.344;6.240;2024-02-28T06:54:29;90.85;;;28.20;;
31836;SDS011;18401;49.344;6.240;2024-02-28T06:56:55;89.30;;;28.75;;
31836;SDS011;18401;49.344;6.240;2024-02-28T06:59:20;89.78;;;28.95;;
31836;SDS011;18401;49.344;6.240;2024-02-28T07:01:46;101.43;;;29.08;;
31836;SDS011;18401;49.344;6.240;2024-02-28T07:04:12;101.45;;;29.77;;
31836;SDS011;18401;49.344;6.240;2024-02-28T07:06:37;108.53;;;31.50;;
31836;SDS011;18401;49.344;6.240;2024-02-28T07:09:03;96.22;;;27.92;;
31836;SDS011;18401;49.344;6.240;2024-02-28T07:11:29;94.57;;;28.75;;
31836;SDS011;18401;49.344;6.240;2024-02-28T07:13:55;88.72;;;29.08;;
31836;SDS011;18401;49.344;6.240;2024-02-28T07:16:22;98.38;;;26.83;;
31836;SDS011;18401;49.344;6.240;2024-02-28T07:18:48;97.65;;;29.65;;
31836;SDS011;18401;49.344;6.240;2024-02-28T07:21:13;92.60;;;26.55;;
31836;SDS011;18401;49.344;6.240;2024-02-28T07:23:39;85.32;;;26.95;;
31836;SDS011;18401;49.344;6.240;2024-02-28T07:26:06;87.85;;;27.02;;
31836;SDS011;18401;49.344;6.240;2024-02-28T07:28:32;89.28;;;27.25;;
31836;SDS011;18401;49.344;6.240;2024-02-28T07:30:57;93.10;;;25.70;;
31836;SDS011;18401;49.344;6.240;2024-02-28T07:33:23;87.57;;;27.83;;
31836;SDS011;18401;49.344;6.240;2024-02-28T07:35:51;88.90;;;26.60;;
31836;SDS011;18401;49.344;6.240;2024-02-28T07:38:17;85.38;;;27.83;;
31836;SDS011;18401;49.344;6.240;2024-02-28T07:40:45;88.13;;;27.10;;
31836;SDS011;18401;49.344;6.240;2024-02-28T07:43:12;96.72;;;28.45;;
31836;SDS011;18401;49.344;6.240;2024-02-28T07:45:38;96.75;;;30.38;;
31836;SDS011;18401;49.344;6.240;2024-02-28T07:48:05;95.55;;;28.25;;
31836;SDS011;18401;49.344;6.240;2024-02-28T07:50:31;87.75;;;28.58;;
31836;SDS011;18401;49.344;6.240;2024-02-28T07:52:56;100.22;;;27.42;;
31836;SDS011;18401;49.344;6.240;2024-02-28T07:55:22;84.32;;;26.85;;
31836;SDS011;18401;49.344;6.240;2024-02-28T07:57:51;89.50;;;28.00;;
31836;SDS011;18401;49.344;6.240;2024-02-28T08:00:18;92.30;;;27.95;;
31836;SDS011;18401;49.344;6.240;2024-02-28T08:02:45;78.82;;;24.38;;
31836;SDS011;18401;49.344;6.240;2024-02-28T08:05:10;87.85;;;27.02;;
31836;SDS011;18401;49.344;6.240;2024-02-28T08:07:36;88.35;;;27.60;;
31836;SDS011;18401;49.344;6.240;2024-02-28T08:10:02;86.43;;;27.35;;
31836;SDS011;18401;49.344;6.240;2024-02-28T08:12:30;86.72;;;27.05;;
31836;SDS011;18401;49.344;6.240;2024-02-28T08:14:57;77.63;;;26.33;;
31836;SDS011;18401;49.344;6.240;2024-02-28T08:17:22;80.15;;;24.80;;
31836;SDS011;18401;49.344;6.240;2024-02-28T08:19:48;84.32;;;26.13;;
31836;SDS011;18401;49.344;6.240;2024-02-28T08:22:14;86.35;;;26.42;;
31836;SDS011;18401;49.344;6.240;2024-02-28T08:24:39;78.40;;;26.10;;
31836;SDS011;18401;49.344;6.240;2024-02-28T08:27:05;75.65;;;26.08;;
31836;SDS011;18401;49.344;6.240;2024-02-28T08:29:31;86.75;;;27.23;;
31836;SDS011;18401;49.344;6.240;2024-02-28T08:31:57;82.43;;;25.17;;
31836;SDS011;18401;49.344;6.240;2024-02-28T08:34:23;82.47;;;26.08;;
31836;SDS011;18401;49.344;6.240;2024-02-28T08:36:49;78.95;;;25.15;;
31836;SDS011;18401;49.344;6.240;2024-02-28T08:39:17;86.57;;;26.90;;
31836;SDS011;18401;49.344;6.240;2024-02-28T08:41:42;83.22;;;27.05;;
31836;SDS011;18401;49.344;6.240;2024-02-28T08:44:08;79.63;;;25.08;;
31836;SDS011;18401;49.344;6.240;2024-02-28T08:46:34;79.70;;;26.77;;
31836;SDS011;18401;49.344;6.240;2024-02-28T08:48:59;73.03;;;24.85;;
31836;SDS011;18401;49.344;6.240;2024-02-28T08:51:25;77.05;;;25.38;;
31836;SDS011;18401;49.344;6.240;2024-02-28T08:53:52;78.97;;;24.25;;
31836;SDS011;18401;49.344;6.240;2024-02-28T08:56:18;83.32;;;25.30;;
31836;SDS011;18401;49.344;6.240;2024-02-28T08:58:44;80.35;;;27.42;;
31836;SDS011;18401;49.344;6.240;2024-02-28T09:01:13;77.47;;;25.20;;
31836;SDS011;18401;49.344;6.240;2024-02-28T09:03:40;84.68;;;25.13;;
31836;SDS011;18401;49.344;6.240;2024-02-28T09:06:05;79.30;;;26.13;;
31836;SDS011;18401;49.344;6.240;2024-02-28T09:08:31;81.57;;;25.13;;
31836;SDS011;18401;49.344;6.240;2024-02-28T09:10:57;78.55;;;25.77;;
31836;SDS011;18401;49.344;6.240;2024-02-28T09:13:23;76.32;;;25.98;;
31836;SDS011;18401;49.344;6.240;2024-02-28T09:15:49;84.57;;;27.70;;
31836;SDS011;18401;49.344;6.240;2024-02-28T09:18:14;73.25;;;25.60;;
31836;SDS011;18401;49.344;6.240;2024-02-28T09:20:41;71.05;;;24.02;;
31836;SDS011;18401;49.344;6.240;2024-02-28T09:23:07;74.40;;;24.83;;
31836;SDS011;18401;49.344;6.240;2024-02-28T09:25:32;77.63;;;25.08;;
31836;SDS011;18401;49.344;6.240;2024-02-28T09:28:00;72.10;;;23.77;;
31836;SDS011;18401;49.344;6.240;2024-02-28T09:30:26;74.38;;;26.15;;
31836;SDS011;18401;49.344;6.240;2024-02-28T09:32:52;80.60;;;25.52;;
31836;SDS011;18401;49.344;6.240;2024-02-28T09:35:17;68.35;;;24.55;;
31836;SDS011;18401;49.344;6.240;2024-02-28T09:37:43;74.53;;;24.60;;
31836;SDS011;18401;49.344;6.240;2024-02-28T09:40:09;73.70;;;24.58;;
31836;SDS011;18401;49.344;6.240;2024-02-28T09:42:35;71.47;;;25.00;;
31836;SDS011;18401;49.344;6.240;2024-02-28T09:45:02;73.32;;;25.30;;
31836;SDS011;18401;49.344;6.240;2024-02-28T09:47:29;70.00;;;23.30;;
31836;SDS011;18401;49.344;6.240;2024-02-28T09:49:55;72.50;;;23.27;;
31836;SDS011;18401;49.344;6.240;2024-02-28T09:52:25;70.75;;;24.17;;
31836;SDS011;18401;49.344;6.240;2024-02-28T09:54:52;70.90;;;25.48;;
31836;SDS011;18401;49.344;6.240;2024-02-28T09:57:18;76.07;;;25.42;;
31836;SDS011;18401;49.344;6.240;2024-02-28T09:59:44;82.25;;;27.85;;
31836;SDS011;18401;49.344;6.240;2024-02-28T10:02:10;65.53;;;24.77;;
31836;SDS011;18401;49.344;6.240;2024-02-28T10:04:37;73.95;;;22.98;;
31836;SDS011;18401;49.344;6.240;2024-02-28T10:07:12;71.18;;;22.45;;
31836;SDS011;18401;49.344;6.240;2024-02-28T10:09:38;62.53;;;22.48;;
31836;SDS011;18401;49.344;6.240;2024-02-28T10:12:04;74.65;;;24.15;;
31836;SDS011;18401;49.344;6.240;2024-02-28T10:14:30;78.32;;;25.05;;
31836;SDS011;18401;49.344;6.240;2024-02-28T10:16:56;59.58;;;23.58;;
31836;SDS011;18401;49.344;6.240;2024-02-28T10:19:22;78.20;;;23.08;;
31836;SDS011;18401;49.344;6.240;2024-02-28T10:21:47;62.33;;;23.00;;
31836;SDS011;18401;49.344;6.240;2024-02-28T10:24:13;70.95;;;24.45;;
31836;SDS011;18401;49.344;6.240;2024-02-28T10:26:45;66.85;;;23.63;;
31836;SDS011;18401;49.344;6.240;2024-02-28T10:29:20;69.45;;;23.30;;
31836;SDS011;18401;49.344;6.240;2024-02-28T10:31:47;66.70;;;24.48;;
31836;SDS011;18401;49.344;6.240;2024-02-28T10:34:12;69.45;;;25.02;;
31836;SDS011;18401;49.344;6.240;2024-02-28T10:36:41;68.65;;;23.80;;
31836;SDS011;18401;49.344;6.240;2024-02-28T10:39:08;74.13;;;24.80;;
31836;SDS011;18401;49.344;6.240;2024-02-28T10:41:36;70.50;;;23.10;;
31836;SDS011;18401;49.344;6.240;2024-02-28T10:44:03;75.80;;;24.05;;
31836;SDS011;18401;49.344;6.240;2024-02-28T10:46:29;66.20;;;23.73;;
31836;SDS011;18401;49.344;6.240;2024-02-28T10:48:55;77.85;;;26.13;;
31836;SDS011;18401;49.344;6.240;2024-02-28T10:51:23;70.85;;;24.25;;
31836;SDS011;18401;49.344;6.240;2024-02-28T10:54:00;60.35;;;22.20;;
31836;SDS011;18401;49.344;6.240;2024-02-28T10:56:38;67.53;;;25.23;;
31836;SDS011;18401;49.344;6.240;2024-02-28T10:59:08;70.60;;;24.50;;
31836;SDS011;18401;49.344;6.240;2024-02-28T11:01:38;67.07;;;24.05;;
31836;SDS011;18401;49.344;6.240;2024-02-28T11:04:07;62.97;;;21.08;;
31836;SDS011;18401;49.344;6.240;2024-02-28T11:06:33;62.17;;;20.27;;
31836;SDS011;18401;49.344;6.240;2024-02-28T11:09:02;66.53;;;23.95;;
31836;SDS011;18401;49.344;6.240;2024-02-28T11:11:31;62.67;;;23.83;;
31836;SDS011;18401;49.344;6.240;2024-02-28T11:13:57;66.60;;;22.98;;
31836;SDS011;18401;49.344;6.240;2024-02-28T11:16:26;54.30;;;21.02;;
31836;SDS011;18401;49.344;6.240;2024-02-28T11:18:56;55.47;;;21.23;;
31836;SDS011;18401;49.344;6.240;2024-02-28T11:21:25;54.22;;;20.27;;
31836;SDS011;18401;49.344;6.240;2024-02-28T11:23:51;59.13;;;22.40;;
31836;SDS011;18401;49.344;6.240;2024-02-28T11:26:24;57.90;;;20.73;;
31836;SDS011;18401;49.344;6.240;2024-02-28T11:28:50;58.80;;;19.55;;
31836;SDS011;18401;49.344;6.240;2024-02-28T11:31:16;63.03;;;21.77;;
31836;SDS011;18401;49.344;6.240;2024-02-28T11:33:43;61.65;;;22.08;;
31836;SDS011;18401;49.344;6.240;2024-02-28T11:36:11;52.72;;;20.65;;
31836;SDS011;18401;49.344;6.240;2024-02-28T11:38:38;57.20;;;20.70;;
31836;SDS011;18401;49.344;6.240;2024-02-28T11:41:04;54.50;;;21.17;;
31836;SDS011;18401;49.344;6.240;2024-02-28T11:43:31;53.17;;;19.88;;
31836;SDS011;18401;49.344;6.240;2024-02-28T11:45:57;51.58;;;19.90;;
31836;SDS011;18401;49.344;6.240;2024-02-28T11:48:24;57.67;;;21.65;;
31836;SDS011;18401;49.344;6.240;2024-02-28T11:50:51;56.42;;;20.80;;
31836;SDS011;18401;49.344;6.240;2024-02-28T11:53:16;51.70;;;19.35;;
31836;SDS011;18401;49.344;6.240;2024-02-28T11:55:42;55.40;;;20.55;;
31836;SDS011;18401;49.344;6.240;2024-02-28T11:58:10;56.58;;;21.40;;
31836;SDS011;18401;49.344;6.240;2024-02-28T12:00:49;56.13;;;21.08;;
31836;SDS011;18401;49.344;6.240;2024-02-28T12:03:24;55.22;;;20.38;;
31836;SDS011;18401;49.344;6.240;2024-02-28T12:08:17;55.67;;;21.00;;
31836;SDS011;18401;49.344;6.240;2024-02-28T12:10:44;58.55;;;20.67;;
31836;SDS011;18401;49.344;6.240;2024-02-28T12:13:10;52.85;;;20.05;;
31836;SDS011;18401;49.344;6.240;2024-02-28T12:15:38;49.97;;;20.02;;
31836;SDS011;18401;49.344;6.240;2024-02-28T12:18:09;58.35;;;19.83;;
31836;SDS011;18401;49.344;6.240;2024-02-28T12:20:35;56.20;;;19.88;;
31836;SDS011;18401;49.344;6.240;2024-02-28T12:23:05;55.30;;;19.63;;
31836;SDS011;18401;49.344;6.240;2024-02-28T12:25:31;65.50;;;23.73;;
31836;SDS011;18401;49.344;6.240;2024-02-28T12:27:56;55.67;;;19.23;;
31836;SDS011;18401;49.344;6.240;2024-02-28T12:30:22;56.40;;;21.30;;
31836;SDS011;18401;49.344;6.240;2024-02-28T12:32:48;51.70;;;20.30;;
31836;SDS011;18401;49.344;6.240;2024-02-28T12:35:13;54.13;;;19.27;;
31836;SDS011;18401;49.344;6.240;2024-02-28T12:37:39;51.45;;;20.48;;
31836;SDS011;18401;49.344;6.240;2024-02-28T12:40:05;64.35;;;22.52;;
31836;SDS011;18401;49.344;6.240;2024-02-28T12:42:34;48.38;;;20.30;;
31836;SDS011;18401;49.344;6.240;2024-02-28T12:45:01;47.33;;;18.70;;
31836;SDS011;18401;49.344;6.240;2024-02-28T12:47:28;51.40;;;21.08;;
31836;SDS011;18401;49.344;6.240;2024-02-28T12:49:56;51.58;;;20.88;;
31836;SDS011;18401;49.344;6.240;2024-02-28T12:52:22;59.60;;;22.65;;
31836;SDS011;18401;49.344;6.240;2024-02-28T12:54:49;59.88;;;22.58;;
31836;SDS011;18401;49.344;6.240;2024-02-28T12:57:15;62.45;;;23.30;;
31836;SDS011;18401;49.344;6.240;2024-02-28T12:59:41;66.13;;;24.85;;
31836;SDS011;18401;49.344;6.240;2024-02-28T13:02:07;60.55;;;23.60;;
31836;SDS011;18401;49.344;6.240;2024-02-28T13:04:34;69.93;;;26.85;;
31836;SDS011;18401;49.344;6.240;2024-02-28T13:07:00;73.90;;;27.02;;
31836;SDS011;18401;49.344;6.240;2024-02-28T13:09:25;70.95;;;25.50;;
31836;SDS011;18401;49.344;6.240;2024-02-28T13:11:51;71.32;;;25.70;;
31836;SDS011;18401;49.344;6.240;2024-02-28T13:14:17;67.43;;;25.77;;
31836;SDS011;18401;49.344;6.240;2024-02-28T13:16:42;74.40;;;27.75;;
31836;SDS011;18401;49.344;6.240;2024-02-28T13:19:09;71.72;;;26.17;;
31836;SDS011;18401;49.344;6.240;2024-02-28T13:21:35;83.95;;;28.85;;
31836;SDS011;18401;49.344;6.240;2024-02-28T13:24:02;71.70;;;25.23;;
31836;SDS011;18401;49.344;6.240;2024-02-28T13:26:28;67.85;;;25.73;;
31836;SDS011;18401;49.344;6.240;2024-02-28T13:28:54;72.03;;;26.42;;
31836;SDS011;18401;49.344;6.240;2024-02-28T13:31:19;67.80;;;25.38;;
31836;SDS011;18401;49.344;6.240;2024-02-28T13:33:45;63.58;;;23.92;;
31836;SDS011;18401;49.344;6.240;2024-02-28T13:36:13;62.33;;;26.05;;
31836;SDS011;18401;49.344;6.240;2024-02-28T13:38:38;61.50;;;23.75;;
31836;SDS011;18401;49.344;6.240;2024-02-28T13:41:04;54.75;;;21.33;;
31836;SDS011;18401;49.344;6.240;2024-02-28T13:43:30;62.05;;;24.00;;
31836;SDS011;18401;49.344;6.240;2024-02-28T13:45:56;52.95;;;19.83;;
31836;SDS011;18401;49.344;6.240;2024-02-28T13:48:25;42.67;;;17.95;;
31836;SDS011;18401;49.344;6.240;2024-02-28T13:50:53;43.97;;;16.83;;
31836;SDS011;18401;49.344;6.240;2024-02-28T13:53:19;45.13;;;18.17;;
31836;SDS011;18401;49.344;6.240;2024-02-28T13:55:45;51.40;;;18.77;;
31836;SDS011;18401;49.344;6.240;2024-02-28T13:58:11;42.05;;;18.25;;
31836;SDS011;18401;49.344;6.240;2024-02-28T14:00:38;42.33;;;18.38;;
31836;SDS011;18401;49.344;6.240;2024-02-28T14:03:05;42.28;;;18.33;;
31836;SDS011;18401;49.344;6.240;2024-02-28T14:05:34;48.78;;;19.27;;
31836;SDS011;18401;49.344;6.240;2024-02-28T14:07:59;46.85;;;19.58;;
31836;SDS011;18401;49.344;6.240;2024-02-28T14:10:26;50.42;;;20.75;;
31836;SDS011;18401;49.344;6.240;2024-02-28T14:12:51;48.47;;;20.13;;
31836;SDS011;18401;49.344;6.240;2024-02-28T14:15:18;52.45;;;18.98;;
31836;SDS011;18401;49.344;6.240;2024-02-28T14:17:44;39.58;;;18.27;;